createdAt,value
2023-05-17T00:04:20.594Z,35.48
2023-05-17T00:09:40.138Z,35.40
2023-05-17T00:14:55.175Z,35.74
2023-05-17T00:20:38.413Z,35.86
2023-05-17T00:25:56.263Z,35.67
2023-05-17T00:31:13.711Z,35.64
2023-05-17T00:36:17.102Z,36.04
2023-05-17T00:41:27.447Z,36.65
2023-05-17T00:46:34.873Z,36.52
2023-05-17T00:51:42.455Z,36.44
2023-05-17T00:56:58.177Z,36.74
2023-05-17T01:02:04.113Z,36.48
2023-05-17T01:07:18.367Z,37.28
2023-05-17T01:12:31.236Z,37.28
2023-05-17T01:18:30.557Z,38.36
2023-05-17T01:24:02.566Z,38.32
2023-05-17T01:29:16.764Z,38.42
2023-05-17T01:36:40.543Z,38.59
2023-05-17T01:40:17.720Z,39.44
2023-05-17T01:45:25.293Z,39.36
2023-05-17T01:50:32.833Z,39.22
2023-05-17T01:55:40.324Z,39.68
2023-05-17T02:00:47.376Z,39.84
2023-05-17T02:05:54.549Z,39.59
2023-05-17T02:11:08.056Z,41.00
2023-05-17T02:16:15.259Z,40.21
2023-05-17T02:21:22.477Z,40.87
2023-05-17T02:26:29.791Z,41.03
2023-05-17T02:31:37.024Z,40.63
2023-05-17T02:36:44.199Z,40.60
2023-05-17T02:41:51.791Z,40.33
2023-05-17T02:47:05.693Z,41.96
2023-05-17T02:52:14.823Z,41.30
2023-05-17T02:57:22.748Z,40.52
2023-05-17T03:03:22.409Z,41.41
2023-05-17T03:08:51.961Z,41.51
2023-05-17T03:13:43.868Z,41.05
2023-05-17T03:19:26.935Z,40.85
2023-05-17T03:24:34.039Z,40.94
2023-05-17T03:30:20.996Z,40.27
2023-05-17T03:35:28.449Z,40.08
2023-05-17T03:40:35.371Z,40.18
2023-05-17T03:45:42.655Z,39.68
2023-05-17T03:50:49.773Z,39.54
2023-05-17T03:55:56.987Z,39.45
2023-05-17T04:01:04.371Z,40.21
2023-05-17T04:06:11.538Z,39.88
2023-05-17T04:11:18.852Z,39.52
2023-05-17T04:16:35.567Z,40.25
2023-05-17T04:21:40.757Z,40.03
2023-05-17T04:26:48.090Z,40.17
2023-05-17T04:31:55.527Z,40.08
2023-05-17T04:37:02.653Z,39.93
2023-05-17T04:42:09.946Z,40.13
2023-05-17T04:47:17.532Z,39.88
2023-05-17T04:52:24.673Z,40.08
2023-05-17T04:57:31.910Z,39.98
2023-05-17T05:02:39.411Z,40.17
2023-05-17T05:07:46.516Z,40.09
2023-05-17T05:12:53.744Z,40.00
2023-05-17T05:18:01.161Z,39.88
2023-05-17T05:23:08.192Z,39.42
2023-05-17T05:28:15.762Z,40.07
2023-05-17T05:33:24.076Z,39.79
2023-05-17T05:38:41.801Z,40.49
2023-05-17T05:43:49.473Z,40.03
2023-05-17T05:49:06.720Z,40.25
2023-05-17T05:54:50.727Z,40.76
2023-05-17T06:00:48.926Z,40.49
2023-05-17T06:06:36.243Z,40.71
2023-05-17T06:11:55.730Z,40.45
2023-05-17T06:17:01.815Z,39.90
2023-05-17T06:22:27.031Z,40.02
2023-05-17T06:27:37.217Z,40.09
2023-05-17T06:32:41.334Z,39.04
2023-05-17T06:38:24.544Z,38.88
2023-05-17T06:43:32.178Z,39.02
2023-05-17T06:48:58.878Z,39.16
2023-05-17T06:54:41.518Z,38.80
2023-05-17T07:00:43.338Z,39.01
2023-05-17T07:05:11.915Z,39.25
2023-05-17T07:10:23.812Z,38.33
2023-05-17T07:15:31.370Z,38.02
2023-05-17T07:20:50.563Z,38.68
2023-05-17T07:25:53.486Z,39.24
2023-05-17T07:31:05.281Z,39.39
2023-05-17T07:37:18.329Z,39.01
2023-05-17T07:42:05.619Z,39.25
2023-05-17T07:47:35.250Z,39.45
2023-05-17T07:53:16.126Z,39.73
2023-05-17T07:58:33.314Z,39.78
2023-05-17T08:04:28.008Z,38.57
2023-05-17T08:09:41.788Z,38.35
2023-05-17T08:14:51.421Z,37.31
2023-05-17T08:19:58.604Z,37.39
2023-05-17T08:25:05.719Z,37.20
2023-05-17T08:30:18.113Z,36.92
2023-05-17T08:35:20.306Z,37.15
2023-05-17T08:40:33.890Z,37.34
2023-05-17T08:45:59.079Z,37.58
2023-05-17T08:51:58.369Z,37.31
2023-05-17T08:57:09.017Z,37.73
2023-05-17T09:02:16.784Z,37.75
2023-05-17T09:07:36.498Z,38.04
2023-05-17T09:13:28.952Z,37.67
2023-05-17T09:18:10.583Z,38.13
2023-05-17T09:23:19.132Z,37.71
2023-05-17T09:28:54.892Z,37.60
2023-05-17T09:34:43.343Z,37.21
2023-05-17T09:39:58.735Z,36.84
2023-05-17T09:45:15.393Z,36.42
2023-05-17T09:50:38.901Z,37.05
2023-05-17T09:55:51.795Z,36.25
2023-05-17T10:01:04.978Z,36.57
2023-05-17T10:06:13.421Z,36.69
2023-05-17T10:11:19.761Z,35.72
2023-05-17T10:16:34.555Z,35.56
2023-05-17T10:21:41.313Z,34.95
2023-05-17T10:26:48.520Z,34.41
2023-05-17T10:31:55.693Z,33.84
2023-05-17T10:37:02.925Z,34.11
2023-05-17T10:42:14.804Z,33.66
2023-05-17T10:47:17.569Z,33.79
2023-05-17T10:52:24.839Z,33.38
2023-05-17T10:57:36.094Z,33.23
2023-05-17T11:02:39.291Z,33.20
2023-05-17T11:07:46.484Z,32.72
2023-05-17T11:12:53.885Z,32.22
2023-05-17T11:18:01.379Z,32.97
2023-05-17T11:23:09.084Z,33.73
2023-05-17T11:28:16.559Z,33.13
2023-05-17T11:33:33.495Z,33.59
2023-05-17T11:38:31.184Z,33.29
2023-05-17T11:43:38.463Z,32.80
2023-05-17T11:48:45.818Z,32.94
2023-05-17T11:53:56.418Z,33.88
2023-05-17T11:59:01.549Z,33.96
2023-05-17T12:04:09.128Z,33.64
2023-05-17T12:09:23.844Z,33.58
2023-05-17T12:14:28.073Z,33.57
2023-05-17T12:19:36.560Z,33.58
2023-05-17T12:24:54.131Z,33.43
2023-05-17T12:29:53.670Z,34.09
2023-05-17T12:35:11.894Z,33.81
2023-05-17T12:40:25.584Z,33.67
2023-05-17T12:45:33.041Z,33.73
2023-05-17T12:50:40.225Z,33.17
2023-05-17T12:55:47.453Z,33.13
2023-05-17T13:00:54.645Z,32.76
2023-05-17T13:06:01.878Z,32.86
2023-05-17T13:11:09.076Z,33.46
2023-05-17T13:16:16.317Z,33.40
2023-05-17T13:21:23.530Z,33.55
2023-05-17T13:26:42.620Z,33.51
2023-05-17T13:31:50.115Z,33.64
2023-05-17T13:37:00.133Z,33.38
2023-05-17T13:42:14.918Z,33.64
2023-05-17T13:47:22.148Z,33.78
2023-05-17T13:52:29.322Z,33.67
2023-05-17T13:57:36.635Z,33.29
2023-05-17T14:02:44.093Z,33.73
2023-05-17T14:08:06.312Z,33.76
2023-05-17T14:13:13.594Z,33.45
2023-05-17T14:18:21.092Z,33.13
2023-05-17T14:23:31.391Z,33.75
2023-05-17T14:28:38.634Z,33.60
2023-05-17T14:33:45.813Z,33.61
2023-05-17T14:38:53.018Z,33.46
2023-05-17T14:44:00.298Z,33.88
2023-05-17T14:49:07.540Z,33.88
2023-05-17T14:54:14.694Z,33.99
2023-05-17T14:59:21.930Z,33.73
2023-05-17T15:04:29.196Z,33.27
2023-05-17T15:09:36.277Z,33.38
2023-05-17T15:14:43.454Z,33.65
2023-05-17T15:19:50.879Z,33.19
2023-05-17T15:24:58.124Z,33.61
2023-05-17T15:30:05.334Z,33.80
2023-05-17T15:35:12.461Z,33.46
2023-05-17T15:40:19.646Z,33.47
2023-05-17T15:45:26.942Z,34.13
2023-05-17T15:50:34.076Z,34.23
2023-05-17T15:55:41.386Z,33.54
2023-05-17T16:00:48.697Z,33.66
2023-05-17T16:05:55.949Z,32.75
2023-05-17T16:11:03.052Z,33.56
2023-05-17T16:16:13.419Z,33.34
2023-05-17T16:21:23.164Z,33.85
2023-05-17T16:26:30.518Z,33.61
2023-05-17T16:31:38.071Z,33.52
2023-05-17T16:36:45.522Z,33.94
2023-05-17T16:41:53.030Z,33.78
2023-05-17T16:47:00.679Z,33.48
2023-05-17T16:52:08.293Z,33.60
2023-05-17T16:57:16.009Z,33.63
2023-05-17T17:02:23.697Z,33.55
2023-05-17T17:07:31.242Z,33.58
2023-05-17T17:12:38.860Z,33.52
2023-05-17T17:17:46.738Z,33.39
2023-05-17T17:22:54.277Z,33.10
2023-05-17T17:28:02.012Z,33.61
2023-05-17T17:33:09.856Z,33.53
2023-05-17T17:38:17.440Z,33.57
2023-05-17T17:43:25.046Z,33.48
2023-05-17T17:48:32.793Z,33.38
2023-05-17T17:53:40.792Z,33.67
2023-05-17T17:58:48.705Z,33.52
2023-05-17T18:03:56.352Z,33.71
2023-05-17T18:09:04.051Z,33.75
2023-05-17T18:14:11.780Z,34.04
2023-05-17T18:19:19.732Z,34.73
2023-05-17T18:24:27.301Z,34.65
2023-05-17T18:29:35.023Z,34.31
2023-05-17T18:34:42.698Z,33.86
2023-05-17T18:39:50.441Z,33.76
2023-05-17T18:44:58.184Z,33.49
2023-05-17T18:50:05.903Z,33.46
2023-05-17T18:55:13.905Z,33.21
2023-05-17T19:00:21.733Z,33.24
2023-05-17T19:05:29.557Z,32.78
2023-05-17T19:10:37.154Z,33.10
2023-05-17T19:15:44.999Z,32.93
2023-05-17T19:20:53.132Z,32.57
2023-05-17T19:26:00.314Z,32.80
2023-05-17T19:31:08.145Z,32.85
2023-05-17T19:36:15.655Z,32.91
2023-05-17T19:41:23.354Z,32.83
2023-05-17T19:46:31.149Z,32.75
2023-05-17T19:51:38.919Z,32.13
2023-05-17T19:56:47.174Z,32.41
2023-05-17T20:01:54.758Z,32.50
2023-05-17T20:07:02.582Z,31.95
2023-05-17T20:12:10.200Z,32.09
2023-05-17T20:17:17.985Z,31.81
2023-05-17T20:22:25.831Z,31.60
2023-05-17T20:27:33.438Z,31.91
2023-05-17T20:32:41.297Z,31.97
2023-05-17T20:37:49.085Z,32.00
2023-05-17T20:42:56.870Z,32.06
2023-05-17T20:48:04.546Z,32.53
2023-05-17T20:53:12.233Z,32.29
2023-05-17T20:58:20.140Z,32.21
2023-05-17T21:03:28.045Z,32.46
2023-05-17T21:08:34.752Z,31.46
2023-05-17T21:13:41.907Z,31.02
2023-05-17T21:18:49.427Z,31.31
2023-05-17T21:23:56.630Z,30.91
2023-05-17T21:29:03.980Z,30.84
2023-05-17T21:34:11.194Z,31.26
2023-05-17T21:39:18.501Z,30.49
2023-05-17T21:44:25.715Z,31.12
2023-05-17T21:49:32.944Z,30.74
2023-05-17T21:54:40.260Z,30.98
2023-05-17T21:59:47.489Z,30.37
2023-05-17T22:04:54.796Z,30.98
2023-05-17T22:10:02.352Z,30.82
2023-05-17T22:15:09.553Z,30.97
2023-05-17T22:20:16.737Z,30.55
2023-05-17T22:25:24.124Z,29.99
2023-05-17T22:30:31.714Z,30.64
2023-05-17T22:35:38.804Z,30.96
2023-05-17T22:40:46.066Z,31.08
2023-05-17T22:45:53.332Z,31.57
2023-05-17T22:51:00.772Z,31.47
2023-05-17T22:56:43.693Z,31.62
2023-05-17T23:02:06.745Z,31.67
2023-05-17T23:07:24.466Z,31.70
2023-05-17T23:12:36.769Z,31.74
2023-05-17T23:17:58.124Z,31.82
2023-05-17T23:23:01.180Z,31.86
2023-05-17T23:28:38.728Z,31.94
2023-05-17T23:33:49.107Z,32.05
2023-05-17T23:39:04.500Z,32.20
2023-05-17T23:44:07.015Z,32.22
2023-05-17T23:49:29.456Z,32.24
2023-05-17T23:54:38.386Z,32.45
2023-05-17T23:59:49.171Z,32.55
